createdAt,value
2023-05-19T00:01:02.335Z,99404.00
2023-05-19T00:03:35.791Z,99392.00
2023-05-19T00:06:11.133Z,99385.00
2023-05-19T00:08:44.118Z,99368.00
2023-05-19T00:11:17.748Z,99365.00
2023-05-19T00:13:52.573Z,99352.00
2023-05-19T00:16:25.586Z,99356.00
2023-05-19T00:18:59.013Z,99362.00
2023-05-19T00:21:32.094Z,99375.00
2023-05-19T00:24:04.889Z,99354.00
2023-05-19T00:26:37.967Z,99361.00
2023-05-19T00:29:10.825Z,99355.00
2023-05-19T00:31:43.783Z,99348.00
2023-05-19T00:34:16.982Z,99341.00
2023-05-19T00:36:54.371Z,99342.00
2023-05-19T00:39:27.133Z,99334.00
2023-05-19T00:45:04.458Z,99311.00
2023-05-19T00:47:38.388Z,99313.00
2023-05-19T00:50:11.782Z,99317.00
2023-05-19T00:52:44.933Z,99305.00
2023-05-19T00:55:18.780Z,99296.00
2023-05-19T00:57:52.814Z,99287.00
2023-05-19T01:00:29.089Z,99290.00
2023-05-19T01:03:02.419Z,99289.00
2023-05-19T01:05:35.417Z,99270.00
2023-05-19T01:08:19.886Z,99275.00
2023-05-19T01:10:52.150Z,99270.00
2023-05-19T01:13:25.007Z,99265.00
2023-05-19T01:16:11.627Z,99261.00
2023-05-19T01:18:56.662Z,99266.00
2023-05-19T01:21:32.307Z,99269.00
2023-05-19T01:24:07.457Z,99270.00
2023-05-19T01:26:48.207Z,99274.00
2023-05-19T01:29:35.110Z,99268.00
2023-05-19T01:32:09.942Z,99254.00
2023-05-19T01:34:45.185Z,99253.00
2023-05-19T01:37:18.343Z,99258.00
2023-05-19T01:39:51.810Z,99251.00
2023-05-19T01:42:25.720Z,99260.00
2023-05-19T01:44:59.865Z,99251.00
2023-05-19T01:47:32.663Z,99238.00
2023-05-19T01:50:06.368Z,99228.00
2023-05-19T01:52:39.203Z,99229.00
2023-05-19T01:55:13.088Z,99232.00
2023-05-19T01:58:10.398Z,99222.00
2023-05-19T02:01:03.219Z,99237.00
2023-05-19T02:03:51.245Z,99224.00
2023-05-19T02:06:47.873Z,99225.00
2023-05-19T02:09:38.851Z,99236.00
2023-05-19T02:12:16.622Z,99221.00
2023-05-19T02:15:00.625Z,99220.00
2023-05-19T02:17:35.355Z,99216.00
2023-05-19T02:20:09.203Z,99211.00
2023-05-19T02:22:42.249Z,99215.00
2023-05-19T02:25:15.899Z,99207.00
2023-05-19T02:27:48.686Z,99210.00
2023-05-19T02:30:21.614Z,99201.00
2023-05-19T02:32:58.062Z,99203.00
2023-05-19T02:35:30.857Z,99196.00
2023-05-19T02:38:04.050Z,99195.00
2023-05-19T02:40:36.826Z,99191.00
2023-05-19T02:43:10.720Z,99181.00
2023-05-19T02:45:43.684Z,99173.00
2023-05-19T02:48:16.671Z,99148.00
2023-05-19T02:50:49.551Z,99153.00
2023-05-19T02:53:22.319Z,99147.00
2023-05-19T02:55:55.082Z,99156.00
2023-05-19T02:58:28.442Z,99153.00
2023-05-19T03:01:01.497Z,99154.00
2023-05-19T03:03:34.908Z,99148.00
2023-05-19T03:06:09.425Z,99143.00
2023-05-19T03:08:42.615Z,99148.00
2023-05-19T03:11:15.610Z,99141.00
2023-05-19T03:13:48.690Z,99145.00
2023-05-19T03:16:21.894Z,99141.00
2023-05-19T03:18:55.042Z,99144.00
2023-05-19T03:21:28.111Z,99140.00
2023-05-19T03:24:01.232Z,99143.00
2023-05-19T03:26:34.525Z,99125.00
2023-05-19T03:29:07.617Z,99129.00
2023-05-19T03:31:40.357Z,99109.00
2023-05-19T03:34:13.399Z,99103.00
2023-05-19T03:36:46.980Z,99102.00
2023-05-19T03:39:19.924Z,99104.00
2023-05-19T03:41:53.161Z,99103.00
2023-05-19T03:44:26.312Z,99092.00
2023-05-19T03:46:59.254Z,99090.00
2023-05-19T03:49:32.640Z,99081.00
2023-05-19T03:52:05.811Z,99086.00
2023-05-19T03:54:38.707Z,99080.00
2023-05-19T03:57:13.096Z,99075.00
2023-05-19T03:59:46.784Z,99077.00
2023-05-19T04:02:20.259Z,99071.00
2023-05-19T04:04:53.388Z,99063.00
2023-05-19T04:07:26.302Z,99062.00
2023-05-19T04:10:03.445Z,99061.00
2023-05-19T04:12:36.374Z,99054.00
2023-05-19T04:15:09.788Z,99059.00
2023-05-19T04:17:42.984Z,99060.00
2023-05-19T04:20:16.675Z,99059.00
2023-05-19T04:22:49.602Z,99053.00
2023-05-19T04:25:22.529Z,99055.00
2023-05-19T04:27:55.287Z,99062.00
2023-05-19T04:30:28.525Z,99049.00
2023-05-19T04:33:02.764Z,99054.00
2023-05-19T04:35:35.683Z,99061.00
2023-05-19T04:38:08.699Z,99062.00
2023-05-19T04:40:43.045Z,99051.00
2023-05-19T04:43:15.795Z,99059.00
2023-05-19T04:45:53.370Z,99059.00
2023-05-19T04:48:26.296Z,99041.00
2023-05-19T04:50:59.736Z,99059.00
2023-05-19T04:53:33.524Z,99042.00
2023-05-19T04:56:06.889Z,99053.00
2023-05-19T04:58:41.893Z,99048.00
2023-05-19T05:01:17.663Z,99044.00
2023-05-19T05:03:54.331Z,99051.00
2023-05-19T05:06:27.526Z,99039.00
2023-05-19T05:09:00.371Z,99047.00
2023-05-19T05:14:28.918Z,99033.00
2023-05-19T05:17:06.472Z,99032.00
2023-05-19T05:19:39.792Z,99031.00
2023-05-19T05:22:12.907Z,99035.00
2023-05-19T05:24:46.208Z,99039.00
2023-05-19T05:27:19.093Z,99031.00
2023-05-19T05:29:52.035Z,99034.00
2023-05-19T05:32:25.589Z,99033.00
2023-05-19T05:34:58.880Z,99036.00
2023-05-19T05:37:32.121Z,99032.00
2023-05-19T05:40:05.732Z,99027.00
2023-05-19T05:42:38.915Z,99027.00
2023-05-19T05:45:12.536Z,99038.00
2023-05-19T05:47:45.683Z,99034.00
2023-05-19T05:50:19.473Z,99029.00
2023-05-19T05:52:54.434Z,99015.00
2023-05-19T05:55:27.815Z,99019.00
2023-05-19T05:58:01.320Z,99015.00
2023-05-19T06:00:35.567Z,99000.00
2023-05-19T06:03:09.142Z,98999.00
2023-05-19T06:05:42.246Z,99007.00
2023-05-19T06:08:15.162Z,98999.00
2023-05-19T06:10:48.676Z,99011.00
2023-05-19T06:13:22.704Z,99012.00
2023-05-19T06:15:56.237Z,99007.00
2023-05-19T06:18:29.349Z,99008.00
2023-05-19T06:21:02.462Z,99006.00
2023-05-19T06:23:37.833Z,99007.00
2023-05-19T06:26:10.806Z,99011.00
2023-05-19T06:28:43.532Z,99013.00
2023-05-19T06:31:16.515Z,99021.00
2023-05-19T06:33:49.398Z,99029.00
2023-05-19T06:36:22.456Z,99025.00
2023-05-19T06:38:55.373Z,99022.00
2023-05-19T06:41:28.423Z,99031.00
2023-05-19T06:44:01.368Z,99030.00
2023-05-19T06:46:34.664Z,99024.00
2023-05-19T06:49:10.168Z,99031.00
2023-05-19T06:51:43.442Z,99024.00
2023-05-19T06:54:17.908Z,99023.00
2023-05-19T06:56:50.872Z,99023.00
2023-05-19T06:59:24.599Z,99036.00
2023-05-19T07:01:57.658Z,99039.00
2023-05-19T07:04:30.869Z,99036.00
2023-05-19T07:07:03.985Z,99038.00
2023-05-19T07:09:37.079Z,99033.00
2023-05-19T07:12:09.928Z,99042.00
2023-05-19T07:14:43.088Z,99037.00
2023-05-19T07:17:21.734Z,99029.00
2023-05-19T07:19:54.677Z,99037.00
2023-05-19T07:22:27.619Z,99035.00
2023-05-19T07:25:00.563Z,99034.00
2023-05-19T07:27:33.519Z,99031.00
2023-05-19T07:30:07.029Z,99030.00
2023-05-19T07:32:39.986Z,99035.00
2023-05-19T07:35:13.018Z,99038.00
2023-05-19T07:37:45.908Z,99042.00
2023-05-19T07:40:19.052Z,99041.00
2023-05-19T07:42:52.889Z,99042.00
2023-05-19T07:45:26.033Z,99041.00
2023-05-19T07:47:59.224Z,99033.00
2023-05-19T07:50:32.356Z,99029.00
2023-05-19T07:53:05.280Z,99035.00
2023-05-19T07:55:37.850Z,99020.00
2023-05-19T07:58:10.666Z,99028.00
2023-05-19T08:00:47.793Z,99023.00
2023-05-19T08:03:21.337Z,99037.00
2023-05-19T08:06:01.129Z,99030.00
2023-05-19T08:08:35.145Z,99023.00
2023-05-19T08:11:08.582Z,99020.00
2023-05-19T08:13:41.636Z,99023.00
2023-05-19T08:16:15.238Z,99025.00
2023-05-19T08:18:48.224Z,99023.00
2023-05-19T08:21:21.237Z,99022.00
2023-05-19T08:23:54.168Z,99023.00
2023-05-19T08:26:27.841Z,99031.00
2023-05-19T08:29:00.980Z,99028.00
2023-05-19T08:31:34.022Z,99014.00
2023-05-19T08:34:06.847Z,99009.00
2023-05-19T08:36:39.756Z,99021.00
2023-05-19T08:39:12.614Z,99001.00
2023-05-19T08:41:45.633Z,99013.00
2023-05-19T08:44:19.128Z,99021.00
2023-05-19T08:46:57.790Z,99025.00
2023-05-19T08:49:31.497Z,99022.00
2023-05-19T08:52:15.732Z,99019.00
2023-05-19T08:54:56.649Z,99017.00
2023-05-19T08:57:30.661Z,99005.00
2023-05-19T09:00:04.194Z,99001.00
2023-05-19T09:02:46.412Z,99005.00
2023-05-19T09:05:13.116Z,98998.00
2023-05-19T09:07:46.732Z,99009.00
2023-05-19T09:10:19.681Z,98996.00
2023-05-19T09:12:53.424Z,99009.00
2023-05-19T09:15:28.182Z,98998.00
2023-05-19T09:18:15.154Z,99010.00
2023-05-19T09:20:48.966Z,99004.00
2023-05-19T09:23:23.046Z,98997.00
2023-05-19T09:25:56.947Z,98997.00
2023-05-19T09:28:34.978Z,98993.00
2023-05-19T09:31:12.418Z,98987.00
2023-05-19T09:33:46.382Z,98986.00
2023-05-19T09:36:19.504Z,98974.00
2023-05-19T09:38:52.588Z,98982.00
2023-05-19T09:41:25.630Z,98988.00
2023-05-19T09:44:02.037Z,98982.00
2023-05-19T09:46:36.356Z,98982.00
2023-05-19T09:49:16.214Z,98983.00
2023-05-19T09:51:49.880Z,98979.00
2023-05-19T09:54:23.523Z,98992.00
2023-05-19T09:57:03.358Z,98985.00
2023-05-19T09:59:36.671Z,98971.00
2023-05-19T10:02:11.237Z,98969.00
2023-05-19T10:04:45.165Z,98967.00
2023-05-19T10:07:19.853Z,98968.00
2023-05-19T10:09:55.040Z,98963.00
2023-05-19T10:12:29.970Z,98969.00
2023-05-19T10:15:03.225Z,98985.00
2023-05-19T10:17:37.676Z,98976.00
2023-05-19T10:20:12.068Z,98974.00
2023-05-19T10:22:50.209Z,98970.00
2023-05-19T10:25:27.058Z,98971.00
2023-05-19T10:28:02.042Z,98965.00
2023-05-19T10:30:40.106Z,98967.00
2023-05-19T10:33:15.636Z,98976.00
2023-05-19T10:35:53.537Z,98959.00
2023-05-19T10:38:40.515Z,98953.00
2023-05-19T10:41:18.375Z,98962.00
2023-05-19T10:44:05.049Z,98944.00
2023-05-19T10:46:37.803Z,98950.00
2023-05-19T10:49:15.640Z,98941.00
2023-05-19T10:51:49.315Z,98932.00
2023-05-19T10:54:24.502Z,98926.00
2023-05-19T10:56:59.700Z,98931.00
2023-05-19T10:59:36.246Z,98922.00
2023-05-19T11:02:13.021Z,98919.00
2023-05-19T11:04:52.618Z,98929.00
2023-05-19T11:07:27.133Z,98919.00
2023-05-19T11:10:00.148Z,98917.00
2023-05-19T11:12:35.231Z,98922.00
2023-05-19T11:15:08.468Z,98919.00
2023-05-19T11:17:42.913Z,98911.00
2023-05-19T11:20:29.562Z,98925.00
2023-05-19T11:23:23.684Z,98920.00
2023-05-19T11:25:57.082Z,98925.00
2023-05-19T11:28:31.514Z,98918.00
2023-05-19T11:31:05.982Z,98925.00
2023-05-19T11:33:39.100Z,98927.00
2023-05-19T11:36:16.927Z,98924.00
2023-05-19T11:38:50.181Z,98907.00
2023-05-19T11:41:23.636Z,98914.00
2023-05-19T11:43:56.562Z,98893.00
2023-05-19T11:46:29.901Z,98893.00
2023-05-19T11:49:04.149Z,98886.00
2023-05-19T11:51:37.773Z,98879.00
2023-05-19T11:54:11.066Z,98878.00
2023-05-19T11:56:47.018Z,98866.00
2023-05-19T11:59:19.897Z,98877.00
2023-05-19T12:01:53.204Z,98871.00
2023-05-19T12:04:26.409Z,98870.00
2023-05-19T12:06:59.710Z,98854.00
2023-05-19T12:09:33.246Z,98855.00
2023-05-19T12:12:06.246Z,98851.00
2023-05-19T12:14:43.335Z,98847.00
2023-05-19T12:17:16.886Z,98849.00
2023-05-19T12:19:50.594Z,98834.00
2023-05-19T12:22:24.055Z,98830.00
2023-05-19T12:24:57.011Z,98819.00
2023-05-19T12:27:30.896Z,98833.00
2023-05-19T12:30:06.050Z,98817.00
2023-05-19T12:32:39.175Z,98820.00
2023-05-19T12:35:12.907Z,98817.00
2023-05-19T12:37:50.149Z,98825.00
2023-05-19T12:40:23.228Z,98805.00
2023-05-19T12:42:58.247Z,98808.00
2023-05-19T12:45:31.537Z,98816.00
2023-05-19T12:48:06.922Z,98805.00
2023-05-19T12:50:41.086Z,98807.00
2023-05-19T12:53:18.009Z,98807.00
2023-05-19T12:55:51.538Z,98791.00
2023-05-19T12:58:25.094Z,98813.00
2023-05-19T13:00:59.937Z,98774.00
2023-05-19T13:03:32.823Z,98796.00
2023-05-19T13:06:05.807Z,98783.00
2023-05-19T13:08:38.635Z,98775.00
2023-05-19T13:11:12.087Z,98764.00
2023-05-19T13:13:44.933Z,98747.00
2023-05-19T13:16:18.061Z,98755.00
2023-05-19T13:18:51.458Z,98750.00
2023-05-19T13:21:24.330Z,98738.00
2023-05-19T13:23:57.286Z,98745.00
2023-05-19T13:26:30.401Z,98736.00
2023-05-19T13:29:03.274Z,98724.00
2023-05-19T13:31:36.395Z,98745.00
2023-05-19T13:34:09.329Z,98732.00
2023-05-19T13:36:42.438Z,98717.00
2023-05-19T13:39:15.608Z,98729.00
2023-05-19T13:41:48.732Z,98718.00
2023-05-19T13:44:21.574Z,98706.00
2023-05-19T13:46:54.617Z,98722.00
2023-05-19T13:49:27.535Z,98715.00
2023-05-19T13:52:03.487Z,98715.00
2023-05-19T13:54:36.452Z,98710.00
2023-05-19T13:57:09.470Z,98700.00
2023-05-19T13:59:57.335Z,98694.00
2023-05-19T14:02:16.383Z,98696.00
2023-05-19T14:04:50.215Z,98697.00
2023-05-19T14:07:23.113Z,98706.00
2023-05-19T14:09:56.369Z,98693.00
2023-05-19T14:12:38.111Z,98685.00
2023-05-19T14:15:10.542Z,98683.00
2023-05-19T14:17:44.019Z,98663.00
2023-05-19T14:20:17.123Z,98656.00
2023-05-19T14:22:50.132Z,98680.00
2023-05-19T14:25:23.069Z,98666.00
2023-05-19T14:27:56.019Z,98666.00
2023-05-19T14:30:28.969Z,98665.00
2023-05-19T14:33:01.876Z,98654.00
2023-05-19T14:35:35.997Z,98650.00
2023-05-19T14:38:09.030Z,98656.00
2023-05-19T14:40:44.939Z,98656.00
2023-05-19T14:43:17.918Z,98662.00
2023-05-19T14:45:50.920Z,98676.00
2023-05-19T14:48:23.817Z,98657.00
2023-05-19T14:50:57.496Z,98668.00
2023-05-19T14:53:30.342Z,98648.00
2023-05-19T14:56:04.590Z,98636.00
2023-05-19T14:58:37.308Z,98632.00
2023-05-19T15:01:10.265Z,98629.00
2023-05-19T15:03:43.255Z,98613.00
2023-05-19T15:06:16.118Z,98620.00
2023-05-19T15:08:49.098Z,98607.00
2023-05-19T15:11:22.683Z,98600.00
2023-05-19T15:13:55.888Z,98601.00
2023-05-19T15:16:28.944Z,98592.00
2023-05-19T15:19:02.177Z,98595.00
2023-05-19T15:21:35.213Z,98588.00
2023-05-19T15:24:08.323Z,98568.00
2023-05-19T15:26:41.512Z,98574.00
2023-05-19T15:29:15.674Z,98571.00
2023-05-19T15:31:48.858Z,98550.00
2023-05-19T15:34:21.871Z,98561.00
2023-05-19T15:36:54.797Z,98557.00
2023-05-19T15:39:32.034Z,98540.00
2023-05-19T15:42:05.126Z,98539.00
2023-05-19T15:44:38.574Z,98544.00
2023-05-19T15:47:11.488Z,98550.00
2023-05-19T15:49:44.443Z,98546.00
2023-05-19T15:52:17.495Z,98529.00
2023-05-19T15:54:50.704Z,98538.00
2023-05-19T15:57:23.892Z,98554.00
2023-05-19T15:59:56.807Z,98535.00
2023-05-19T16:02:29.931Z,98531.00
2023-05-19T16:05:02.931Z,98540.00
2023-05-19T16:07:35.761Z,98524.00
2023-05-19T16:10:09.110Z,98543.00
2023-05-19T16:12:42.363Z,98527.00
2023-05-19T16:15:15.678Z,98534.00
2023-05-19T16:17:48.680Z,98523.00
2023-05-19T16:20:22.839Z,98521.00
2023-05-19T16:22:55.823Z,98513.00
2023-05-19T16:25:31.446Z,98495.00
2023-05-19T16:28:04.122Z,98490.00
2023-05-19T16:30:37.341Z,98500.00
2023-05-19T16:33:11.271Z,98496.00
2023-05-19T16:35:44.257Z,98498.00
2023-05-19T16:38:17.312Z,98501.00
2023-05-19T16:40:50.203Z,98493.00
2023-05-19T16:43:23.195Z,98489.00
2023-05-19T16:45:55.949Z,98496.00
2023-05-19T16:48:28.769Z,98488.00
2023-05-19T16:51:01.608Z,98478.00
2023-05-19T16:53:34.740Z,98477.00
2023-05-19T16:56:07.937Z,98479.00
2023-05-19T16:58:44.847Z,98476.00
2023-05-19T17:01:18.334Z,98479.00
2023-05-19T17:03:51.850Z,98489.00
2023-05-19T17:06:25.071Z,98477.00
2023-05-19T17:08:57.965Z,98477.00
2023-05-19T17:11:30.867Z,98489.00
2023-05-19T17:14:06.091Z,98489.00
2023-05-19T17:16:40.094Z,98495.00
2023-05-19T17:19:13.200Z,98496.00
2023-05-19T17:21:46.097Z,98495.00
2023-05-19T17:24:18.980Z,98491.00
2023-05-19T17:26:51.809Z,98491.00
2023-05-19T17:29:24.752Z,98495.00
2023-05-19T17:31:58.029Z,98486.00
2023-05-19T17:34:31.936Z,98491.00
2023-05-19T17:37:05.029Z,98482.00
2023-05-19T17:39:38.336Z,98483.00
2023-05-19T17:42:11.191Z,98478.00
2023-05-19T17:44:44.041Z,98481.00
2023-05-19T17:47:17.046Z,98486.00
2023-05-19T17:49:49.874Z,98469.00
2023-05-19T17:52:23.543Z,98474.00
2023-05-19T17:54:56.946Z,98468.00
2023-05-19T17:57:31.176Z,98460.00
2023-05-19T18:00:05.427Z,98471.00
2023-05-19T18:02:38.872Z,98468.00
2023-05-19T18:05:12.822Z,98470.00
2023-05-19T18:07:46.434Z,98467.00
2023-05-19T18:10:20.537Z,98466.00
2023-05-19T18:12:54.762Z,98459.00
2023-05-19T18:15:27.950Z,98457.00
2023-05-19T18:18:00.970Z,98454.00
2023-05-19T18:20:35.211Z,98457.00
2023-05-19T18:23:08.308Z,98449.00
2023-05-19T18:25:43.896Z,98464.00
2023-05-19T18:28:16.746Z,98469.00
2023-05-19T18:30:49.765Z,98466.00
2023-05-19T18:33:25.169Z,98463.00
2023-05-19T18:35:56.771Z,98464.00
2023-05-19T18:38:29.578Z,98453.00
2023-05-19T18:41:02.591Z,98442.00
2023-05-19T18:43:36.196Z,98443.00
2023-05-19T18:46:09.343Z,98448.00
2023-05-19T18:48:42.288Z,98446.00
2023-05-19T18:51:16.321Z,98448.00
2023-05-19T18:53:51.077Z,98447.00
2023-05-19T18:56:31.658Z,98455.00
2023-05-19T18:59:04.570Z,98451.00
2023-05-19T19:01:37.502Z,98470.00
2023-05-19T19:04:10.963Z,98468.00
2023-05-19T19:06:44.075Z,98465.00
2023-05-19T19:09:16.942Z,98483.00
2023-05-19T19:11:49.955Z,98467.00
2023-05-19T19:14:24.032Z,98476.00
2023-05-19T19:16:56.968Z,98478.00
2023-05-19T19:19:31.526Z,98481.00
2023-05-19T19:22:04.533Z,98478.00
2023-05-19T19:24:37.760Z,98485.00
2023-05-19T19:27:10.787Z,98485.00
2023-05-19T19:29:43.660Z,98500.00
2023-05-19T19:32:16.567Z,98510.00
2023-05-19T19:34:49.615Z,98515.00
2023-05-19T19:37:22.655Z,98512.00
2023-05-19T19:39:55.550Z,98526.00
2023-05-19T19:42:28.569Z,98514.00
2023-05-19T19:45:01.503Z,98511.00
2023-05-19T19:47:34.634Z,98518.00
2023-05-19T19:50:07.878Z,98517.00
2023-05-19T19:52:40.687Z,98525.00
2023-05-19T19:55:14.249Z,98523.00
2023-05-19T19:57:52.752Z,98515.00
2023-05-19T20:00:27.470Z,98523.00
2023-05-19T20:05:33.779Z,98519.00
2023-05-19T20:08:06.733Z,98528.00
2023-05-19T20:10:39.920Z,98537.00
2023-05-19T20:13:12.761Z,98535.00
2023-05-19T20:15:47.360Z,98539.00
2023-05-19T20:18:20.277Z,98540.00
2023-05-19T20:20:53.308Z,98539.00
2023-05-19T20:23:26.754Z,98538.00
2023-05-19T20:26:11.926Z,98546.00
2023-05-19T20:28:34.768Z,98552.00
2023-05-19T20:31:07.590Z,98562.00
2023-05-19T20:33:40.571Z,98538.00
2023-05-19T20:36:16.668Z,98553.00
2023-05-19T20:38:49.792Z,98558.00
2023-05-19T20:41:25.188Z,98571.00
2023-05-19T20:44:03.222Z,98574.00
2023-05-19T20:46:39.045Z,98581.00
2023-05-19T20:49:11.892Z,98566.00
2023-05-19T20:51:44.814Z,98575.00
2023-05-19T20:54:17.755Z,98576.00
2023-05-19T20:56:50.812Z,98578.00
2023-05-19T20:59:23.734Z,98573.00
2023-05-19T21:01:56.633Z,98573.00
2023-05-19T21:04:29.680Z,98580.00
2023-05-19T21:07:02.784Z,98576.00
2023-05-19T21:09:35.678Z,98578.00
2023-05-19T21:12:08.669Z,98572.00
2023-05-19T21:14:41.623Z,98584.00
2023-05-19T21:17:15.044Z,98583.00
2023-05-19T21:19:48.546Z,98586.00
2023-05-19T21:22:22.183Z,98602.00
2023-05-19T21:24:55.078Z,98589.00
2023-05-19T21:27:31.164Z,98599.00
2023-05-19T21:30:04.361Z,98603.00
2023-05-19T21:32:37.204Z,98598.00
2023-05-19T21:35:10.516Z,98603.00
2023-05-19T21:37:43.629Z,98598.00
2023-05-19T21:40:17.218Z,98603.00
2023-05-19T21:42:50.533Z,98609.00
2023-05-19T21:45:23.251Z,98610.00
2023-05-19T21:47:56.399Z,98596.00
2023-05-19T21:50:29.535Z,98620.00
2023-05-19T21:53:03.881Z,98607.00
2023-05-19T21:55:36.822Z,98605.00
2023-05-19T21:58:12.649Z,98605.00
2023-05-19T22:00:45.487Z,98607.00
2023-05-19T22:03:18.506Z,98615.00
2023-05-19T22:05:58.219Z,98623.00
2023-05-19T22:08:31.160Z,98605.00
2023-05-19T22:11:03.995Z,98623.00
2023-05-19T22:13:38.111Z,98623.00
2023-05-19T22:16:11.308Z,98624.00
2023-05-19T22:18:44.589Z,98617.00
2023-05-19T22:21:17.558Z,98627.00
2023-05-19T22:23:50.384Z,98623.00
2023-05-19T22:26:23.881Z,98641.00
2023-05-19T22:28:56.690Z,98636.00
2023-05-19T22:31:29.646Z,98631.00
2023-05-19T22:34:02.618Z,98625.00
2023-05-19T22:36:35.543Z,98629.00
2023-05-19T22:39:08.595Z,98627.00
2023-05-19T22:41:41.505Z,98610.00
2023-05-19T22:44:15.504Z,98610.00
2023-05-19T22:46:48.508Z,98612.00
2023-05-19T22:49:21.371Z,98603.00
2023-05-19T22:51:54.216Z,98614.00
2023-05-19T22:54:26.930Z,98611.00
2023-05-19T22:56:59.727Z,98602.00
2023-05-19T22:59:32.645Z,98599.00
2023-05-19T23:02:05.407Z,98600.00
2023-05-19T23:04:38.426Z,98612.00
2023-05-19T23:07:11.278Z,98606.00
2023-05-19T23:09:44.047Z,98613.00
2023-05-19T23:12:17.302Z,98623.00
2023-05-19T23:14:50.215Z,98617.00
2023-05-19T23:17:24.002Z,98637.00
2023-05-19T23:19:57.212Z,98629.00
2023-05-19T23:22:30.068Z,98618.00
2023-05-19T23:25:04.322Z,98605.00
2023-05-19T23:27:43.094Z,98605.00
2023-05-19T23:30:25.956Z,98623.00
2023-05-19T23:33:03.896Z,98617.00
2023-05-19T23:35:36.835Z,98613.00
2023-05-19T23:38:09.840Z,98599.00
2023-05-19T23:40:42.742Z,98595.00
2023-05-19T23:43:15.532Z,98598.00
2023-05-19T23:45:48.553Z,98588.00
2023-05-19T23:48:21.300Z,98593.00
2023-05-19T23:50:54.250Z,98595.00
2023-05-19T23:53:27.167Z,98592.00
2023-05-19T23:56:00.238Z,98595.00
2023-05-19T23:58:32.995Z,98590.00
